METAR Data

Data at: 1207 UTC 24 May 2022

METAR for:KRKD (Rockland/Knox Cnty, ME, US)
Text:KRKD 241156Z AUTO 03010KT 10SM CLR 11/03 A3036 RMK AO2 SLP280 T01060033 10111 20094 51007
Temperature: 10.6°C ( 51°F)
Dewpoint: 3.3°C ( 38°F) [RH = 61%]
Pressure (altimeter):30.36 inches Hg (1028.2 mb) [Sea level pressure: 1028.0 mb]
Winds:from the NNE (30 degrees) at 12 MPH (10 knots; 5.1 m/s)
Visibility:10 or more sm (16+ km)
Ceiling:at least 12,000 feet AGL
Clouds:sky clear below 12,000 feet AGL
QC Flag:automated observation with no human augmentation